Time;durP1;ratioP1;P1;durP2;ratioP2;P2;SDS_P1;SDS_P2;PMS_P1;PMS_P2;Temp;Humidity;BMP_temperature;BMP_pressure;BME280_temperature;BME280_humidity;BME280_pressure;Samples;Min_cycle;Max_cycle;Signal;HPM_P1;HPM_P2
2021/11/21 00:02:00;;;;;;;21.42;12.50;;;;;;;9.77;99.70;100381.56;5194352;28;20030;-79
2021/11/21 00:04:32;;;;;;;23.33;12.85;;;;;;;9.67;100.00;100375.81;5201098;28;20029;-80
2021/11/21 00:07:02;;;;;;;22.73;13.40;;;;;;;9.64;100.00;100369.88;5179686;28;20045;-79
2021/11/21 00:09:33;;;;;;;24.30;13.45;;;;;;;9.71;100.00;100371.34;5193698;28;20025;-79
2021/11/21 00:12:04;;;;;;;23.17;14.05;;;;;;;9.64;100.00;100377.69;5182527;28;20030;-79
2021/11/21 00:14:35;;;;;;;22.73;13.25;;;;;;;9.70;100.00;100360.06;5203754;28;20030;-78
2021/11/21 00:17:07;;;;;;;24.17;14.55;;;;;;;9.59;100.00;100346.53;5192944;28;20030;-81
2021/11/21 00:19:40;;;;;;;24.05;13.95;;;;;;;9.58;100.00;100349.19;5194571;28;20068;-78
2021/11/21 00:22:15;;;;;;;25.58;14.27;;;;;;;9.57;100.00;100355.31;5194395;28;20032;-79
2021/11/21 00:24:45;;;;;;;26.02;14.63;;;;;;;9.55;100.00;100352.78;5197659;28;20430;-79
2021/11/21 00:27:16;;;;;;;25.10;14.20;;;;;;;9.62;99.89;100345.59;5193833;28;20025;-81
2021/11/21 00:29:47;;;;;;;24.27;14.77;;;;;;;9.53;100.00;100348.50;5192377;28;20404;-80
2021/11/21 00:32:17;;;;;;;25.85;14.80;;;;;;;9.61;100.00;100343.84;5184230;28;20026;-81
2021/11/21 00:34:48;;;;;;;27.50;15.77;;;;;;;9.59;100.00;100335.25;5200173;28;20055;-80
2021/11/21 00:37:19;;;;;;;28.55;15.63;;;;;;;9.64;100.00;100338.56;5196845;28;20065;-81
2021/11/21 00:39:49;;;;;;;30.25;15.75;;;;;;;9.58;99.85;100329.19;5198807;28;20033;-80
2021/11/21 00:42:19;;;;;;;27.60;15.80;;;;;;;9.44;100.00;100326.22;5197648;28;20092;-80
2021/11/21 00:44:51;;;;;;;29.58;16.15;;;;;;;9.48;100.00;100317.34;5191565;28;20033;-81
2021/11/21 00:47:21;;;;;;;27.63;16.02;;;;;;;9.40;100.00;100322.00;5184970;28;20253;-80
2021/11/21 00:49:51;;;;;;;28.77;15.07;;;;;;;9.49;100.00;100302.56;5196046;28;20411;-79
2021/11/21 00:52:22;;;;;;;29.70;15.85;;;;;;;9.48;100.00;100306.94;5198666;28;20033;-81
2021/11/21 00:54:55;;;;;;;30.67;16.13;;;;;;;9.49;100.00;100308.63;5195251;28;20030;-80
2021/11/21 00:57:25;;;;;;;28.05;14.68;;;;;;;9.50;100.00;100302.50;5189193;28;20463;-78
2021/11/21 00:59:56;;;;;;;26.65;15.20;;;;;;;9.54;99.40;100316.31;5181903;28;20177;-80
2021/11/21 01:02:26;;;;;;;26.67;14.63;;;;;;;9.54;99.90;100316.31;5185218;28;20504;-80
2021/11/21 01:04:59;;;;;;;27.13;14.45;;;;;;;9.57;99.43;100311.84;5193988;28;20539;-80
2021/11/21 01:07:29;;;;;;;27.70;15.13;;;;;;;9.43;100.00;100305.38;5197184;28;20108;-81
2021/11/21 01:10:00;;;;;;;26.95;15.13;;;;;;;9.55;99.50;100307.56;5189555;28;20065;-81
2021/11/21 01:12:30;;;;;;;28.70;15.35;;;;;;;9.58;99.62;100302.22;5175318;28;20363;-80
2021/11/21 01:15:03;;;;;;;27.90;15.55;;;;;;;9.50;99.96;100294.69;5186646;28;20487;-79
2021/11/21 01:17:33;;;;;;;27.77;15.07;;;;;;;9.48;100.00;100290.44;5190574;28;20026;-78
2021/11/21 01:20:06;;;;;;;26.77;14.23;;;;;;;9.52;100.00;100289.41;5191670;28;20500;-81
2021/11/21 01:22:37;;;;;;;27.58;15.18;;;;;;;9.55;100.00;100282.34;5198942;28;20545;-79
2021/11/21 01:25:09;;;;;;;31.73;14.88;;;;;;;9.50;100.00;100284.25;5184084;28;20038;-78
2021/11/21 01:27:40;;;;;;;25.98;14.85;;;;;;;9.45;100.00;100280.13;5186541;28;20117;-80
2021/11/21 01:30:15;;;;;;;29.35;15.15;;;;;;;9.43;99.88;100274.09;5190491;28;20053;-81
2021/11/21 01:32:46;;;;;;;26.65;14.70;;;;;;;9.26;100.00;100273.81;5192119;28;20030;-78
2021/11/21 01:35:17;;;;;;;25.60;13.82;;;;;;;9.36;100.00;100276.09;5185062;28;20026;-81
2021/11/21 01:37:47;;;;;;;26.38;14.82;;;;;;;9.36;100.00;100276.09;5188402;28;20040;-81
2021/11/21 01:40:20;;;;;;;29.08;14.40;;;;;;;9.35;100.00;100270.91;5186204;28;20038;-81
2021/11/21 01:42:53;;;;;;;25.85;14.18;;;;;;;9.20;100.00;100271.44;5181205;28;20749;-80
2021/11/21 01:45:24;;;;;;;25.60;14.52;;;;;;;9.24;100.00;100270.44;5187233;28;20025;-79
2021/11/21 01:47:55;;;;;;;26.08;14.35;;;;;;;9.37;100.00;100267.34;5187439;28;20051;-81
2021/11/21 01:50:33;;;;;;;24.83;13.65;;;;;;;9.44;99.65;100262.75;5180618;28;20112;-81
2021/11/21 01:53:05;;;;;;;27.77;12.93;;;;;;;9.34;99.77;100245.75;5189241;28;20394;-79
2021/11/21 01:55:38;;;;;;;24.48;12.65;;;;;;;9.44;99.80;100245.34;5190740;28;20017;-79
2021/11/21 01:58:08;;;;;;;23.77;12.43;;;;;;;9.44;99.37;100239.28;5175862;28;20094;-79
2021/11/21 02:00:42;;;;;;;21.02;11.93;;;;;;;9.36;99.35;100247.41;5177184;28;20053;-79
2021/11/21 02:03:13;;;;;;;21.05;12.00;;;;;;;9.36;99.75;100238.72;5187556;28;20024;-78
2021/11/21 02:05:45;;;;;;;21.58;11.57;;;;;;;9.35;99.86;100237.00;5186287;28;20100;-80
2021/11/21 02:08:16;;;;;;;20.27;11.70;;;;;;;9.25;100.00;100230.41;5183694;28;20018;-79
2021/11/21 02:10:46;;;;;;;20.75;12.05;;;;;;;9.28;100.00;100232.94;5182399;28;20029;-82
2021/11/21 02:13:17;;;;;;;19.48;11.38;;;;;;;9.28;100.00;100232.94;5181030;28;20467;-79
2021/11/21 02:15:47;;;;;;;23.38;11.00;;;;;;;9.21;100.00;100237.50;5189226;28;20083;-79
2021/11/21 02:18:17;;;;;;;19.30;10.35;;;;;;;9.23;100.00;100237.44;5187682;28;20041;-81
2021/11/21 02:20:51;;;;;;;21.70;11.43;;;;;;;9.32;100.00;100231.91;5188207;28;20018;-81
2021/11/21 02:23:26;;;;;;;19.25;10.40;;;;;;;9.32;99.34;100231.91;5194357;28;20463;-80
2021/11/21 02:25:57;;;;;;;20.20;10.88;;;;;;;9.33;100.00;100223.19;5179344;28;20037;-80
2021/11/21 02:28:28;;;;;;;22.58;11.40;;;;;;;9.31;99.69;100209.34;5174339;28;20045;-79
2021/11/21 02:30:58;;;;;;;19.10;10.90;;;;;;;9.28;100.00;100217.28;5187810;28;20026;-78
2021/11/21 02:33:29;;;;;;;18.98;10.77;;;;;;;9.32;100.00;100211.88;5191504;28;20032;-80
2021/11/21 02:36:02;;;;;;;20.85;11.27;;;;;;;9.18;100.00;100211.53;5189202;28;20459;-81
2021/11/21 02:38:33;;;;;;;19.95;10.93;;;;;;;9.18;100.00;100202.88;5196550;28;20376;-79
2021/11/21 02:41:07;;;;;;;18.70;10.60;;;;;;;9.16;100.00;100204.69;5195913;28;20022;-80
2021/11/21 02:43:40;;;;;;;20.38;11.00;;;;;;;9.17;100.00;100193.34;5188769;28;20496;-78
2021/11/21 02:46:11;;;;;;;19.08;10.38;;;;;;;9.22;100.00;100200.09;5191211;28;20025;-81
2021/11/21 02:48:42;;;;;;;22.58;11.77;;;;;;;9.17;100.00;100196.78;5184151;28;20044;-80
2021/11/21 02:51:14;;;;;;;18.52;10.80;;;;;;;9.18;100.00;100198.50;5197483;28;20021;-79
2021/11/21 02:53:45;;;;;;;19.48;10.68;;;;;;;9.24;100.00;100187.88;5198108;28;20160;-81
2021/11/21 02:56:17;;;;;;;20.80;11.00;;;;;;;9.22;100.00;100188.81;5189714;28;20061;-81
2021/11/21 02:58:48;;;;;;;19.95;10.60;;;;;;;9.31;100.00;100178.06;5195972;28;20048;-82
2021/11/21 03:01:24;;;;;;;18.67;10.45;;;;;;;9.25;100.00;100176.53;5190513;28;20025;-80
2021/11/21 03:03:55;;;;;;;19.42;10.82;;;;;;;9.25;100.00;100167.84;5194996;28;20025;-80
2021/11/21 03:06:27;;;;;;;20.15;11.00;;;;;;;9.30;100.00;100166.75;5192609;28;20033;-80
2021/11/21 03:08:57;;;;;;;19.67;10.50;;;;;;;9.27;100.00;100166.03;5194797;28;20025;-80
2021/11/21 03:11:34;;;;;;;18.33;9.93;;;;;;;9.34;100.00;100164.91;5189244;28;20021;-79
2021/11/21 03:14:05;;;;;;;20.20;10.93;;;;;;;9.24;100.00;100160.94;5196485;28;20029;-81
2021/11/21 03:16:36;;;;;;;19.63;10.77;;;;;;;9.21;100.00;100161.03;5189783;28;20026;-78
2021/11/21 03:19:06;;;;;;;20.13;10.80;;;;;;;9.23;100.00;100154.88;5187555;28;20536;-80
2021/11/21 03:21:36;;;;;;;20.58;10.30;;;;;;;9.32;100.00;100153.69;5199202;28;20033;-82
2021/11/21 03:24:07;;;;;;;20.25;10.07;;;;;;;9.39;100.00;100150.78;5194181;28;20473;-81
2021/11/21 03:26:38;;;;;;;20.38;9.98;;;;;;;9.32;100.00;100149.31;5188630;28;20026;-80
2021/11/21 03:29:08;;;;;;;20.10;10.93;;;;;;;9.24;100.00;100151.38;5184641;28;20446;-80
2021/11/21 03:31:38;;;;;;;20.13;10.75;;;;;;;9.25;100.00;100155.66;5191146;28;20025;-81
2021/11/21 03:34:09;;;;;;;22.17;10.93;;;;;;;9.25;100.00;100146.97;5183985;28;20127;-80
2021/11/21 03:36:40;;;;;;;22.35;10.68;;;;;;;9.19;100.00;100142.00;5189737;28;20289;-79
2021/11/21 03:39:11;;;;;;;20.60;11.02;;;;;;;9.19;100.00;100131.56;5196933;28;20018;-78
2021/11/21 03:41:42;;;;;;;18.42;10.60;;;;;;;9.09;100.00;100130.19;5192535;28;20101;-81
2021/11/21 03:44:12;;;;;;;21.25;11.90;;;;;;;9.12;100.00;100121.44;5206939;28;20022;-81
2021/11/21 03:46:43;;;;;;;20.23;11.32;;;;;;;9.03;100.00;100117.41;5190720;28;20026;-81
2021/11/21 03:49:13;;;;;;;23.85;11.98;;;;;;;9.11;100.00;100117.13;5196397;28;20521;-81
2021/11/21 03:51:44;;;;;;;21.48;11.38;;;;;;;9.07;100.00;100132.00;5193961;28;20064;-81
2021/11/21 03:54:14;;;;;;;21.00;11.93;;;;;;;9.02;100.00;100126.13;5188726;28;20037;-81
2021/11/21 03:56:44;;;;;;;25.02;11.43;;;;;;;9.03;100.00;100127.00;5192643;28;20025;-81
2021/11/21 03:59:15;;;;;;;19.63;11.02;;;;;;;9.27;100.00;100119.09;5197731;28;20054;-79
2021/11/21 04:01:47;;;;;;;19.88;11.23;;;;;;;9.21;100.00;100121.94;5198468;28;20029;-81
2021/11/21 04:04:18;;;;;;;22.13;12.43;;;;;;;9.10;100.00;100124.06;5203777;28;20148;-79
2021/11/21 04:06:50;;;;;;;23.55;12.52;;;;;;;8.98;100.00;100116.72;5190685;28;20064;-81
2021/11/21 04:09:21;;;;;;;22.50;12.07;;;;;;;9.03;100.00;100125.22;5202871;28;20037;-82
2021/11/21 04:11:52;;;;;;;22.13;12.13;;;;;;;9.09;100.00;100114.56;5191598;28;20503;-81
2021/11/21 04:14:22;;;;;;;21.77;12.18;;;;;;;9.02;100.00;100112.22;5197540;28;20025;-81
2021/11/21 04:16:53;;;;;;;22.65;11.82;;;;;;;9.07;100.00;100110.34;5188216;28;20029;-80
2021/11/21 04:19:23;;;;;;;20.30;11.55;;;;;;;9.03;100.00;100113.97;5192088;28;20709;-80
2021/11/21 04:21:54;;;;;;;22.35;11.82;;;;;;;9.16;100.00;100111.66;5195963;28;20344;-81
2021/11/21 04:24:24;;;;;;;23.10;11.77;;;;;;;9.22;100.00;100118.41;5189802;28;20220;-82
2021/11/21 04:26:54;;;;;;;22.65;12.15;;;;;;;9.16;100.00;100118.66;5192621;28;20524;-81
2021/11/21 04:29:27;;;;;;;25.30;12.80;;;;;;;9.05;100.00;100120.81;5184799;28;20033;-80
2021/11/21 04:31:57;;;;;;;23.40;12.30;;;;;;;9.14;100.00;100108.28;5185801;28;20038;-81
2021/11/21 04:34:28;;;;;;;23.88;12.77;;;;;;;9.16;100.00;100113.44;5186773;28;20036;-81
2021/11/21 04:36:59;;;;;;;23.05;12.60;;;;;;;9.05;100.00;100115.59;5188782;28;20476;-80
2021/11/21 04:39:30;;;;;;;22.73;12.07;;;;;;;9.02;100.00;100118.31;5182824;28;20025;-81
2021/11/21 04:42:01;;;;;;;23.77;13.23;;;;;;;8.94;100.00;100114.28;5187407;28;20057;-79
2021/11/21 04:44:31;;;;;;;24.10;12.52;;;;;;;8.83;100.00;100106.84;5191110;28;20041;-80
2021/11/21 04:47:01;;;;;;;21.60;12.10;;;;;;;8.87;100.00;100110.22;5190167;28;20068;-82
2021/11/21 04:49:32;;;;;;;24.10;11.63;;;;;;;8.90;100.00;100103.09;5193270;28;20160;-82
2021/11/21 04:52:03;;;;;;;23.15;12.15;;;;;;;8.84;100.00;100099.88;5193361;28;20534;-80
2021/11/21 04:54:33;;;;;;;26.10;12.35;;;;;;;8.83;100.00;100100.78;5188221;28;20030;-80
2021/11/21 04:57:05;;;;;;;22.30;11.75;;;;;;;8.73;100.00;100094.22;5189773;28;20030;-81
2021/11/21 04:59:35;;;;;;;24.90;12.70;;;;;;;8.79;100.00;100100.06;5182469;28;20038;-81
2021/11/21 05:02:06;;;;;;;21.27;11.98;;;;;;;8.91;100.00;100097.00;5189774;28;20042;-78
2021/11/21 05:04:36;;;;;;;22.52;12.50;;;;;;;8.85;100.00;100099.84;5178696;28;20022;-80
2021/11/21 05:07:07;;;;;;;23.25;12.45;;;;;;;8.95;100.00;100096.00;5183193;28;20022;-82
2021/11/21 05:09:37;;;;;;;23.45;12.63;;;;;;;8.94;100.00;100086.47;5181360;28;20022;-80
2021/11/21 05:12:08;;;;;;;24.63;12.38;;;;;;;8.84;100.00;100095.53;5188957;28;20113;-82
2021/11/21 05:14:38;;;;;;;21.42;11.45;;;;;;;8.87;100.00;100089.38;5192987;28;20426;-82
2021/11/21 05:17:08;;;;;;;22.52;11.70;;;;;;;9.01;100.00;100084.47;5196654;28;20029;-80
2021/11/21 05:19:39;;;;;;;23.38;11.90;;;;;;;9.00;100.00;100077.56;5197799;28;20398;-79
2021/11/21 05:22:09;;;;;;;21.98;11.52;;;;;;;8.88;100.00;100078.88;5195882;28;20119;-79
2021/11/21 05:24:40;;;;;;;24.63;12.65;;;;;;;8.94;100.00;100081.28;5198381;28;20021;-80
2021/11/21 05:27:10;;;;;;;23.67;12.38;;;;;;;8.87;100.00;100074.56;5197654;28;20029;-82
2021/11/21 05:29:40;;;;;;;23.48;11.63;;;;;;;8.92;100.00;100077.84;5194092;28;20372;-79
2021/11/21 05:32:11;;;;;;;22.98;11.75;;;;;;;8.82;100.00;100079.09;5194705;28;20427;-79
2021/11/21 05:34:41;;;;;;;23.55;12.50;;;;;;;8.74;100.00;100075.91;5195634;28;20028;-80
2021/11/21 05:37:13;;;;;;;24.92;12.68;;;;;;;8.77;100.00;100068.00;5194241;28;20459;-79
2021/11/21 05:39:43;;;;;;;19.88;11.70;;;;;;;8.71;100.00;100065.59;5194975;22;20038;-81
2021/11/21 05:42:14;;;;;;;22.60;12.23;;;;;;;8.72;100.00;100066.47;5176043;28;20033;-81
2021/11/21 05:44:44;;;;;;;22.20;11.93;;;;;;;8.72;100.00;100064.69;5181822;28;20085;-80
2021/11/21 05:47:15;;;;;;;24.00;11.77;;;;;;;8.70;100.00;100058.69;5182262;28;20033;-81
2021/11/21 05:49:45;;;;;;;23.30;11.68;;;;;;;8.83;100.00;100054.75;5182432;28;20030;-81
2021/11/21 05:52:16;;;;;;;21.92;11.75;;;;;;;8.77;100.00;100065.41;5178179;28;20407;-80
2021/11/21 05:54:47;;;;;;;20.45;10.80;;;;;;;8.83;100.00;100059.97;5177243;28;20109;-79
2021/11/21 05:57:17;;;;;;;21.45;11.48;;;;;;;8.73;100.00;100053.38;5174077;28;20026;-82
2021/11/21 05:59:48;;;;;;;22.35;11.45;;;;;;;8.80;100.00;100047.06;5174991;28;20512;-81
2021/11/21 06:02:18;;;;;;;21.83;11.50;;;;;;;8.94;100.00;100044.78;5173568;28;20026;-79
2021/11/21 06:04:49;;;;;;;20.00;10.95;;;;;;;8.85;100.00;100037.31;5177149;28;20468;-79
2021/11/21 06:07:19;;;;;;;20.33;10.63;;;;;;;8.79;100.00;100029.72;5183568;28;20100;-81
2021/11/21 06:09:50;;;;;;;22.85;11.40;;;;;;;8.77;100.00;100023.72;5170712;28;20107;-82
2021/11/21 06:12:20;;;;;;;20.65;10.63;;;;;;;8.74;100.00;100025.59;5175023;28;20108;-82
2021/11/21 06:14:50;;;;;;;19.95;10.18;;;;;;;8.74;100.00;100026.41;5175958;28;20082;-81
2021/11/21 06:17:21;;;;;;;18.00;9.98;;;;;;;8.86;100.00;100020.75;5179507;28;20049;-78
2021/11/21 06:19:52;;;;;;;17.52;10.00;;;;;;;8.79;100.00;100019.31;5184052;28;20365;-81
2021/11/21 06:22:22;;;;;;;17.48;10.15;;;;;;;8.87;100.00;100011.19;5177486;28;20029;-81
2021/11/21 06:24:53;;;;;;;17.95;10.02;;;;;;;8.82;100.00;100016.56;5178359;28;20022;-82
2021/11/21 06:27:23;;;;;;;17.15;9.75;;;;;;;8.82;100.00;100011.38;5175739;28;20118;-80
2021/11/21 06:29:54;;;;;;;16.48;9.63;;;;;;;8.83;100.00;100007.84;5180727;28;20030;-80
2021/11/21 06:32:24;;;;;;;16.55;9.45;;;;;;;8.82;100.00;100010.50;5179683;28;20041;-82
2021/11/21 06:34:54;;;;;;;19.83;10.60;;;;;;;8.77;100.00;100021.13;5178524;28;20097;-82
2021/11/21 06:37:25;;;;;;;19.08;10.07;;;;;;;8.80;100.00;100013.19;5177796;28;20030;-79
2021/11/21 06:39:55;;;;;;;20.83;10.95;;;;;;;8.83;100.00;100010.47;5177613;28;20112;-81
2021/11/21 06:42:25;;;;;;;19.65;10.18;;;;;;;8.75;100.00;100014.25;5177737;28;20353;-80
2021/11/21 06:44:56;;;;;;;21.55;10.93;;;;;;;8.68;100.00;100016.22;5181439;28;20499;-80
2021/11/21 06:47:26;;;;;;;24.10;12.95;;;;;;;8.68;100.00;100018.84;5180903;28;20037;-82
2021/11/21 06:50:00;;;;;;;22.13;12.52;;;;;;;8.59;100.00;100021.75;5167029;28;20034;-81
2021/11/21 06:52:31;;;;;;;22.65;11.65;;;;;;;8.69;100.00;100025.75;5173994;28;20085;-78
2021/11/21 06:55:05;;;;;;;19.35;10.77;;;;;;;8.75;100.00;100025.50;5172790;28;20023;-81
2021/11/21 06:57:35;;;;;;;20.77;10.25;;;;;;;8.76;100.00;100022.00;5173582;28;20058;-81
2021/11/21 07:00:08;;;;;;;20.55;11.25;;;;;;;8.72;100.00;100020.41;5175604;28;20030;-81
2021/11/21 07:02:39;;;;;;;18.33;10.38;;;;;;;8.75;100.00;100028.13;5173630;28;20026;-79
2021/11/21 07:05:09;;;;;;;22.02;11.30;;;;;;;8.78;100.00;100032.38;5179845;28;20715;-82
2021/11/21 07:07:41;;;;;;;22.50;10.98;;;;;;;8.74;100.00;100033.41;5169901;28;20034;-81
2021/11/21 07:10:12;;;;;;;20.25;10.63;;;;;;;8.76;100.00;100031.59;5177140;28;20033;-79
2021/11/21 07:12:43;;;;;;;21.17;11.57;;;;;;;8.81;100.00;100035.72;5176337;28;20033;-80
2021/11/21 07:15:15;;;;;;;21.65;11.70;;;;;;;8.77;100.00;100041.97;5182581;28;20037;-80
2021/11/21 07:17:48;;;;;;;25.10;12.93;;;;;;;8.79;100.00;100031.47;5180204;28;20033;-80
2021/11/21 07:20:19;;;;;;;23.23;12.02;;;;;;;8.88;100.00;100036.34;5171813;28;20117;-82
2021/11/21 07:22:52;;;;;;;18.55;10.15;;;;;;;8.91;100.00;100031.00;5181482;28;20119;-81
2021/11/21 07:25:24;;;;;;;16.98;9.85;;;;;;;8.73;100.00;100034.31;5173810;28;20084;-81
2021/11/21 07:27:54;;;;;;;19.55;9.48;;;;;;;8.82;100.00;100027.00;5173604;28;20030;-81
2021/11/21 07:30:25;;;;;;;17.83;9.77;;;;;;;8.77;100.00;100034.16;5178651;28;20037;-80
2021/11/21 07:32:56;;;;;;;18.75;9.73;;;;;;;8.80;100.00;100031.41;5179938;28;20029;-82
2021/11/21 07:35:26;;;;;;;20.25;10.20;;;;;;;8.71;100.00;100023.94;5177162;28;20030;-82
2021/11/21 07:37:57;;;;;;;16.95;9.23;;;;;;;8.63;100.00;100025.13;5184520;28;20453;-82
2021/11/21 07:40:27;;;;;;;16.52;9.23;;;;;;;8.76;100.00;100026.38;5181236;28;20063;-82
2021/11/21 07:42:57;;;;;;;15.75;9.27;;;;;;;8.73;100.00;100027.31;5169311;28;20559;-80
2021/11/21 07:45:28;;;;;;;18.33;9.48;;;;;;;8.68;100.00;100031.00;5186650;28;20076;-81
2021/11/21 07:47:58;;;;;;;17.38;9.60;;;;;;;8.68;100.00;100024.06;5182030;28;20109;-81
2021/11/21 07:50:29;;;;;;;15.70;9.05;;;;;;;8.57;100.00;100031.38;5172166;28;20505;-82
2021/11/21 07:52:59;;;;;;;16.30;9.55;;;;;;;8.70;100.00;100032.66;5185117;28;20076;-82
2021/11/21 07:55:29;;;;;;;17.63;9.45;;;;;;;8.69;100.00;100033.56;5181029;28;20037;-82
2021/11/21 07:58:00;;;;;;;17.52;9.63;;;;;;;8.69;100.00;100036.16;5184893;28;20424;-82
2021/11/21 08:00:31;;;;;;;17.17;9.25;;;;;;;8.68;100.00;100034.47;5190943;28;20026;-81
2021/11/21 08:03:02;;;;;;;16.90;9.57;;;;;;;8.70;100.00;100047.44;5172299;28;20046;-82
2021/11/21 08:05:32;;;;;;;15.55;9.15;;;;;;;8.71;100.00;100042.16;5185289;28;20036;-81
2021/11/21 08:08:04;;;;;;;18.75;9.65;;;;;;;8.72;100.00;100045.63;5168674;28;20029;-81
2021/11/21 08:10:35;;;;;;;17.02;8.80;;;;;;;8.64;100.00;100050.25;5176949;28;20023;-82
2021/11/21 08:13:07;;;;;;;18.48;9.23;;;;;;;8.65;100.00;100057.16;5179685;28;20029;-82
2021/11/21 08:15:38;;;;;;;16.05;9.15;;;;;;;8.62;100.00;100049.47;5177763;28;20030;-81
2021/11/21 08:18:08;;;;;;;16.88;9.75;;;;;;;8.60;100.00;100052.13;5174444;28;20017;-79
2021/11/21 08:20:39;;;;;;;18.52;10.25;;;;;;;8.59;100.00;100060.00;5183512;28;20042;-81
2021/11/21 08:23:09;;;;;;;16.95;9.38;;;;;;;8.65;100.00;100055.41;5178612;28;20064;-81
2021/11/21 08:25:40;;;;;;;17.63;9.85;;;;;;;8.75;100.00;100066.34;5176253;28;20017;-81
2021/11/21 08:28:11;;;;;;;16.98;9.57;;;;;;;8.83;100.00;100069.50;5172328;28;20080;-81
2021/11/21 08:30:41;;;;;;;16.70;9.98;;;;;;;8.91;100.00;100065.72;5173654;28;20029;-80
2021/11/21 08:33:11;;;;;;;19.20;8.95;;;;;;;8.81;100.00;100068.72;5174664;28;20121;-79
2021/11/21 08:35:42;;;;;;;15.43;9.10;;;;;;;8.78;100.00;100066.25;5176079;28;20526;-80
2021/11/21 08:38:13;;;;;;;15.60;8.82;;;;;;;8.76;100.00;100070.66;5181149;28;20471;-81
2021/11/21 08:40:43;;;;;;;17.02;9.63;;;;;;;8.77;100.00;100059.34;5167385;28;20443;-79
2021/11/21 08:43:14;;;;;;;18.88;10.05;;;;;;;8.87;100.00;100058.94;5175685;28;20080;-80
2021/11/21 08:45:45;;;;;;;15.68;9.32;;;;;;;8.85;100.00;100062.50;5175437;28;20273;-81
2021/11/21 08:48:16;;;;;;;21.88;10.15;;;;;;;8.86;100.00;100059.84;5175440;28;20034;-81
2021/11/21 08:50:46;;;;;;;15.80;8.32;;;;;;;8.98;100.00;100054.19;5167072;28;20068;-83
2021/11/21 08:53:17;;;;;;;14.00;8.52;;;;;;;8.95;100.00;100054.31;5170353;28;20030;-81
2021/11/21 08:55:47;;;;;;;15.25;8.65;;;;;;;8.92;100.00;100054.41;5189518;28;20069;-83
2021/11/21 08:58:18;;;;;;;15.13;8.68;;;;;;;9.00;100.00;100056.72;5163271;28;20022;-83
2021/11/21 09:00:48;;;;;;;14.98;8.07;;;;;;;8.99;100.00;100062.84;5173873;28;20018;-83
2021/11/21 09:03:18;;;;;;;15.77;8.38;;;;;;;8.93;100.00;100066.50;5181536;28;20108;-82
2021/11/21 09:05:49;;;;;;;15.90;8.30;;;;;;;8.98;100.00;100059.41;5168932;28;20030;-83
2021/11/21 09:08:19;;;;;;;14.48;8.60;;;;;;;9.15;100.00;100065.66;5172643;28;20030;-83
2021/11/21 09:10:50;;;;;;;15.82;9.07;;;;;;;8.99;100.00;100066.31;5181602;28;20068;-81
2021/11/21 09:13:21;;;;;;;14.63;8.40;;;;;;;9.04;100.00;100066.97;5176508;28;20403;-81
2021/11/21 09:15:51;;;;;;;14.27;8.30;;;;;;;9.07;100.00;100063.41;5187776;28;20026;-82
2021/11/21 09:18:24;;;;;;;15.18;8.57;;;;;;;9.11;100.00;100065.84;5174095;28;20033;-83
2021/11/21 09:20:57;;;;;;;14.10;8.30;;;;;;;9.15;100.00;100072.66;5177194;28;20049;-83
2021/11/21 09:23:27;;;;;;;14.15;8.07;;;;;;;9.21;100.00;100073.28;5176609;28;20026;-81
2021/11/21 09:25:58;;;;;;;12.07;7.50;;;;;;;9.15;100.00;100072.66;5171494;28;20460;-83
2021/11/21 09:28:28;;;;;;;13.02;7.82;;;;;;;8.97;100.00;100077.69;5179817;28;20444;-82
2021/11/21 09:30:59;;;;;;;13.70;8.57;;;;;;;9.02;100.00;100081.81;5171323;28;20060;-82
2021/11/21 09:33:30;;;;;;;15.10;8.90;;;;;;;9.18;100.00;100082.94;5174390;28;20022;-83
2021/11/21 09:36:01;;;;;;;17.58;9.82;;;;;;;9.10;100.00;100090.19;5162560;28;20504;-80
2021/11/21 09:38:31;;;;;;;19.20;10.75;;;;;;;9.10;100.00;100084.16;5178430;28;20323;-82
2021/11/21 09:41:02;;;;;;;25.45;12.70;;;;;;;9.23;100.00;100086.22;5175327;28;20021;-81
2021/11/21 09:43:33;;;;;;;22.70;11.65;;;;;;;9.26;100.00;100086.09;5176217;28;20439;-80
2021/11/21 09:46:03;;;;;;;18.52;9.88;;;;;;;9.33;100.00;100087.59;5173982;28;20125;-83
2021/11/21 09:48:34;;;;;;;23.80;13.50;;;;;;;9.30;100.00;100093.75;5178870;28;20113;-82
2021/11/21 09:51:04;;;;;;;15.80;8.70;;;;;;;9.26;100.00;100081.75;5174424;28;20017;-82
2021/11/21 09:53:35;;;;;;;19.67;10.82;;;;;;;9.27;100.00;100077.38;5171615;28;20027;-83
2021/11/21 09:56:06;;;;;;;17.00;10.00;;;;;;;9.09;100.00;100088.50;5166830;28;20192;-82
2021/11/21 09:58:37;;;;;;;17.10;9.52;;;;;;;9.25;100.00;100085.28;5171076;28;20026;-82
2021/11/21 10:01:30;;;;;;;12.43;7.00;;;;;;;9.18;100.00;100075.97;5162795;28;20062;-82
2021/11/21 10:04:01;;;;;;;10.18;6.30;;;;;;;9.06;100.00;100075.59;5179983;28;20030;-82
2021/11/21 10:06:36;;;;;;;17.55;9.25;;;;;;;9.04;100.00;100079.19;5166141;28;20030;-82
2021/11/21 10:09:08;;;;;;;17.00;9.63;;;;;;;9.15;100.00;100077.84;5169196;28;20026;-83
2021/11/21 10:12:01;;;;;;;13.05;6.85;;;;;;;9.10;100.00;100074.56;5171498;28;20284;-82
2021/11/21 10:14:51;;;;;;;10.18;6.45;;;;;;;9.13;100.00;100071.84;5170101;28;20277;-83
2021/11/21 10:17:23;;;;;;;14.25;8.18;;;;;;;9.15;100.00;100068.25;5173946;28;20029;-83
2021/11/21 10:20:20;;;;;;;10.77;6.40;;;;;;;9.39;100.00;100071.69;5172972;28;20077;-82
2021/11/21 10:22:59;;;;;;;;;;;;;;;9.28;100.00;100076.50;5166874;28;20033;-82
2021/11/21 10:25:33;;;;;;;10.70;6.03;;;;;;;9.27;100.00;100073.03;5171185;28;20211;-81
2021/11/21 10:28:22;;;;;;;10.25;5.70;;;;;;;9.17;100.00;100060.41;5168433;28;20422;-81
2021/11/21 10:31:01;;;;;;;9.43;5.75;;;;;;;9.32;100.00;100067.63;5174154;28;20030;-80
2021/11/21 10:33:53;;;;;;;8.63;4.63;;;;;;;9.48;100.00;100076.56;5154230;28;20108;-82
2021/11/21 10:36:31;;;;;;;7.18;4.43;;;;;;;9.55;100.00;100064.97;5165558;28;20049;-81
2021/11/21 10:39:06;;;;;;;8.77;4.90;;;;;;;9.59;100.00;100072.63;5172177;28;20152;-82
2021/11/21 10:41:40;;;;;;;7.50;4.67;;;;;;;9.44;100.00;100065.41;5182185;28;20037;-83
2021/11/21 10:44:16;;;;;;;7.80;5.15;;;;;;;9.64;100.00;100062.00;5176284;28;20022;-82
2021/11/21 10:46:52;;;;;;;7.60;3.95;;;;;;;9.89;100.00;100062.72;5168331;28;20037;-80
2021/11/21 10:49:33;;;;;;;6.50;3.75;;;;;;;9.75;100.00;100058.06;5174201;28;20130;-82
2021/11/21 10:52:08;;;;;;;6.90;3.65;;;;;;;10.03;100.00;100058.63;5166333;28;20026;-82
2021/11/21 10:54:49;;;;;;;20.70;12.75;;;;;;;10.23;100.00;100057.81;5163426;28;20022;-82
2021/11/21 10:57:23;;;;;;;7.03;3.42;;;;;;;10.00;100.00;100056.13;5157391;28;20038;-83
2021/11/21 10:59:58;;;;;;;11.27;6.88;;;;;;;10.10;100.00;100056.63;5160445;28;20038;-83
2021/11/21 11:02:37;;;;;;;10.18;5.00;;;;;;;10.09;100.00;100052.31;5169964;28;20041;-82
2021/11/21 11:05:14;;;;;;;7.93;4.82;;;;;;;10.18;100.00;100059.78;5164301;28;20030;-82
2021/11/21 11:07:45;;;;;;;5.18;2.90;;;;;;;9.81;100.00;100057.78;5169395;28;20080;-81
2021/11/21 11:10:23;;;;;;;4.90;2.40;;;;;;;9.97;100.00;100064.09;5174445;28;20030;-81
2021/11/21 11:12:56;;;;;;;2.97;2.00;;;;;;;9.89;100.00;100062.72;5157332;28;20062;-81
2021/11/21 11:15:27;;;;;;;5.25;2.40;;;;;;;9.87;100.00;100056.69;5167746;28;20042;-83
2021/11/21 11:17:58;;;;;;;5.25;2.50;;;;;;;9.78;100.00;100055.31;5181634;28;20085;-82
2021/11/21 11:20:28;;;;;;;5.93;2.55;;;;;;;9.95;100.00;100063.31;5174411;28;20610;-83
2021/11/21 11:22:59;;;;;;;7.50;3.08;;;;;;;10.03;100.00;100061.25;5179197;28;20045;-83
2021/11/21 11:25:32;;;;;;;8.02;3.60;;;;;;;9.95;100.00;100057.22;5170128;28;20042;-81
2021/11/21 11:28:11;;;;;;;6.13;3.65;;;;;;;10.01;100.00;100057.00;5173245;28;20039;-83
2021/11/21 11:30:42;;;;;;;9.35;4.25;;;;;;;10.02;100.00;100053.50;5169451;28;20030;-82
2021/11/21 11:33:16;;;;;;;7.85;4.45;;;;;;;10.03;100.00;100056.03;5183479;28;20042;-81